sensor_id;sensor_type;location;lat;lon;timestamp;P1;durP1;ratioP1;P2;durP2;ratioP2
1258;SDS011;619;51.472;6.628;2023-06-10T00:00:50;10.97;;;9.70;;
1258;SDS011;619;51.472;6.628;2023-06-10T00:03:23;10.40;;;9.53;;
1258;SDS011;619;51.472;6.628;2023-06-10T00:05:51;11.40;;;10.23;;
1258;SDS011;619;51.472;6.628;2023-06-10T00:08:17;15.40;;;10.60;;
1258;SDS011;619;51.472;6.628;2023-06-10T00:10:44;13.60;;;11.60;;
1258;SDS011;619;51.472;6.628;2023-06-10T00:13:10;13.07;;;11.70;;
1258;SDS011;619;51.472;6.628;2023-06-10T00:15:36;11.20;;;10.20;;
1258;SDS011;619;51.472;6.628;2023-06-10T00:18:09;9.60;;;8.80;;
1258;SDS011;619;51.472;6.628;2023-06-10T00:20:39;10.03;;;9.13;;
1258;SDS011;619;51.472;6.628;2023-06-10T00:23:05;10.83;;;9.73;;
1258;SDS011;619;51.472;6.628;2023-06-10T00:25:34;13.90;;;9.70;;
1258;SDS011;619;51.472;6.628;2023-06-10T00:28:02;12.27;;;11.13;;
1258;SDS011;619;51.472;6.628;2023-06-10T00:30:28;12.37;;;11.07;;
1258;SDS011;619;51.472;6.628;2023-06-10T00:32:53;12.17;;;11.07;;
1258;SDS011;619;51.472;6.628;2023-06-10T00:35:21;13.07;;;10.60;;
1258;SDS011;619;51.472;6.628;2023-06-10T00:37:47;16.97;;;13.07;;
1258;SDS011;619;51.472;6.628;2023-06-10T00:40:17;22.67;;;14.07;;
1258;SDS011;619;51.472;6.628;2023-06-10T00:42:46;13.83;;;12.40;;
1258;SDS011;619;51.472;6.628;2023-06-10T00:45:16;11.50;;;10.40;;
1258;SDS011;619;51.472;6.628;2023-06-10T00:47:41;13.20;;;11.27;;
1258;SDS011;619;51.472;6.628;2023-06-10T00:50:09;12.27;;;10.70;;
1258;SDS011;619;51.472;6.628;2023-06-10T00:52:38;13.70;;;11.43;;
1258;SDS011;619;51.472;6.628;2023-06-10T00:55:03;14.57;;;10.53;;
1258;SDS011;619;51.472;6.628;2023-06-10T00:57:32;12.33;;;11.03;;
1258;SDS011;619;51.472;6.628;2023-06-10T00:59:59;12.27;;;9.70;;
1258;SDS011;619;51.472;6.628;2023-06-10T01:02:27;15.17;;;11.07;;
1258;SDS011;619;51.472;6.628;2023-06-10T01:04:55;11.73;;;10.60;;
1258;SDS011;619;51.472;6.628;2023-06-10T01:07:28;16.13;;;13.10;;
1258;SDS011;619;51.472;6.628;2023-06-10T01:10:11;14.90;;;12.47;;
1258;SDS011;619;51.472;6.628;2023-06-10T01:15:42;11.10;;;10.10;;
1258;SDS011;619;51.472;6.628;2023-06-10T01:18:08;12.30;;;10.50;;
1258;SDS011;619;51.472;6.628;2023-06-10T01:20:40;12.40;;;10.73;;
1258;SDS011;619;51.472;6.628;2023-06-10T01:23:14;11.23;;;10.10;;
1258;SDS011;619;51.472;6.628;2023-06-10T01:26:04;12.20;;;10.57;;
1258;SDS011;619;51.472;6.628;2023-06-10T01:28:51;11.77;;;10.10;;
1258;SDS011;619;51.472;6.628;2023-06-10T01:34:20;11.57;;;10.23;;
1258;SDS011;619;51.472;6.628;2023-06-10T01:36:51;11.73;;;10.60;;
1258;SDS011;619;51.472;6.628;2023-06-10T01:39:20;10.30;;;9.40;;
1258;SDS011;619;51.472;6.628;2023-06-10T01:41:52;10.20;;;9.13;;
1258;SDS011;619;51.472;6.628;2023-06-10T01:44:18;11.70;;;9.90;;
1258;SDS011;619;51.472;6.628;2023-06-10T01:46:47;11.70;;;10.47;;
1258;SDS011;619;51.472;6.628;2023-06-10T01:49:13;12.93;;;11.53;;
1258;SDS011;619;51.472;6.628;2023-06-10T01:51:43;11.23;;;10.23;;
1258;SDS011;619;51.472;6.628;2023-06-10T01:54:09;11.30;;;10.10;;
1258;SDS011;619;51.472;6.628;2023-06-10T01:56:34;12.20;;;10.93;;
1258;SDS011;619;51.472;6.628;2023-06-10T01:59:00;12.93;;;11.63;;
1258;SDS011;619;51.472;6.628;2023-06-10T02:01:25;12.93;;;11.47;;
1258;SDS011;619;51.472;6.628;2023-06-10T02:03:51;12.27;;;11.17;;
1258;SDS011;619;51.472;6.628;2023-06-10T02:06:19;11.70;;;10.50;;
1258;SDS011;619;51.472;6.628;2023-06-10T02:08:47;12.30;;;11.07;;
1258;SDS011;619;51.472;6.628;2023-06-10T02:11:15;11.37;;;10.33;;
1258;SDS011;619;51.472;6.628;2023-06-10T02:13:41;13.90;;;12.00;;
1258;SDS011;619;51.472;6.628;2023-06-10T02:16:11;12.70;;;11.60;;
1258;SDS011;619;51.472;6.628;2023-06-10T02:18:41;12.07;;;11.00;;
1258;SDS011;619;51.472;6.628;2023-06-10T02:21:11;12.53;;;11.43;;
1258;SDS011;619;51.472;6.628;2023-06-10T02:23:39;14.80;;;13.30;;
1258;SDS011;619;51.472;6.628;2023-06-10T02:26:05;13.67;;;12.30;;
1258;SDS011;619;51.472;6.628;2023-06-10T02:28:33;13.53;;;12.27;;
1258;SDS011;619;51.472;6.628;2023-06-10T02:30:58;15.80;;;11.80;;
1258;SDS011;619;51.472;6.628;2023-06-10T02:33:26;12.83;;;11.20;;
1258;SDS011;619;51.472;6.628;2023-06-10T02:35:55;14.10;;;12.77;;
1258;SDS011;619;51.472;6.628;2023-06-10T02:38:21;14.60;;;12.37;;
1258;SDS011;619;51.472;6.628;2023-06-10T02:40:46;13.50;;;12.30;;
1258;SDS011;619;51.472;6.628;2023-06-10T02:43:14;12.80;;;11.60;;
1258;SDS011;619;51.472;6.628;2023-06-10T02:45:42;14.00;;;12.90;;
1258;SDS011;619;51.472;6.628;2023-06-10T02:48:10;14.43;;;13.03;;
1258;SDS011;619;51.472;6.628;2023-06-10T02:50:35;13.30;;;12.20;;
1258;SDS011;619;51.472;6.628;2023-06-10T02:53:07;14.57;;;13.27;;
1258;SDS011;619;51.472;6.628;2023-06-10T02:55:33;16.77;;;12.83;;
1258;SDS011;619;51.472;6.628;2023-06-10T02:58:04;14.57;;;12.77;;
1258;SDS011;619;51.472;6.628;2023-06-10T03:00:30;14.33;;;13.13;;
1258;SDS011;619;51.472;6.628;2023-06-10T03:02:56;14.93;;;13.07;;
1258;SDS011;619;51.472;6.628;2023-06-10T03:05:30;15.07;;;13.70;;
1258;SDS011;619;51.472;6.628;2023-06-10T03:07:57;14.53;;;13.03;;
1258;SDS011;619;51.472;6.628;2023-06-10T03:10:25;14.77;;;13.47;;
1258;SDS011;619;51.472;6.628;2023-06-10T03:12:51;16.50;;;14.17;;
1258;SDS011;619;51.472;6.628;2023-06-10T03:15:19;15.17;;;13.57;;
1258;SDS011;619;51.472;6.628;2023-06-10T03:17:48;15.27;;;13.13;;
1258;SDS011;619;51.472;6.628;2023-06-10T03:20:13;18.80;;;15.10;;
1258;SDS011;619;51.472;6.628;2023-06-10T03:22:42;18.27;;;16.17;;
1258;SDS011;619;51.472;6.628;2023-06-10T03:25:10;19.17;;;16.40;;
1258;SDS011;619;51.472;6.628;2023-06-10T03:27:40;20.23;;;16.73;;
1258;SDS011;619;51.472;6.628;2023-06-10T03:30:07;17.03;;;15.53;;
1258;SDS011;619;51.472;6.628;2023-06-10T03:32:35;18.00;;;16.10;;
1258;SDS011;619;51.472;6.628;2023-06-10T03:35:01;18.50;;;16.60;;
1258;SDS011;619;51.472;6.628;2023-06-10T03:37:27;18.97;;;17.00;;
1258;SDS011;619;51.472;6.628;2023-06-10T03:39:52;18.97;;;16.97;;
1258;SDS011;619;51.472;6.628;2023-06-10T03:42:20;17.93;;;15.83;;
1258;SDS011;619;51.472;6.628;2023-06-10T03:44:46;19.20;;;16.93;;
1258;SDS011;619;51.472;6.628;2023-06-10T03:47:13;17.90;;;16.10;;
1258;SDS011;619;51.472;6.628;2023-06-10T03:49:39;16.50;;;15.00;;
1258;SDS011;619;51.472;6.628;2023-06-10T03:52:05;18.50;;;15.20;;
1258;SDS011;619;51.472;6.628;2023-06-10T03:54:34;17.83;;;16.17;;
1258;SDS011;619;51.472;6.628;2023-06-10T03:57:00;16.90;;;15.20;;
1258;SDS011;619;51.472;6.628;2023-06-10T03:59:26;17.90;;;15.00;;
1258;SDS011;619;51.472;6.628;2023-06-10T04:01:51;15.43;;;13.93;;
1258;SDS011;619;51.472;6.628;2023-06-10T04:04:17;15.90;;;14.40;;
1258;SDS011;619;51.472;6.628;2023-06-10T04:06:45;15.57;;;14.13;;
1258;SDS011;619;51.472;6.628;2023-06-10T04:09:13;15.70;;;14.23;;
1258;SDS011;619;51.472;6.628;2023-06-10T04:11:39;16.90;;;15.10;;
1258;SDS011;619;51.472;6.628;2023-06-10T04:14:05;16.77;;;15.27;;
1258;SDS011;619;51.472;6.628;2023-06-10T04:16:33;15.10;;;13.90;;
1258;SDS011;619;51.472;6.628;2023-06-10T04:18:59;15.67;;;14.17;;
1258;SDS011;619;51.472;6.628;2023-06-10T04:21:28;14.40;;;12.87;;
1258;SDS011;619;51.472;6.628;2023-06-10T04:23:53;14.53;;;13.03;;
1258;SDS011;619;51.472;6.628;2023-06-10T04:26:19;14.40;;;12.90;;
1258;SDS011;619;51.472;6.628;2023-06-10T04:28:44;13.57;;;12.27;;
1258;SDS011;619;51.472;6.628;2023-06-10T04:31:15;13.73;;;12.53;;
1258;SDS011;619;51.472;6.628;2023-06-10T04:33:41;15.60;;;14.20;;
1258;SDS011;619;51.472;6.628;2023-06-10T04:36:08;15.23;;;13.73;;
1258;SDS011;619;51.472;6.628;2023-06-10T04:38:34;15.00;;;13.57;;
1258;SDS011;619;51.472;6.628;2023-06-10T04:41:02;14.67;;;13.43;;
1258;SDS011;619;51.472;6.628;2023-06-10T04:43:30;16.93;;;15.13;;
1258;SDS011;619;51.472;6.628;2023-06-10T04:45:55;15.53;;;13.60;;
1258;SDS011;619;51.472;6.628;2023-06-10T04:48:23;16.40;;;14.00;;
1258;SDS011;619;51.472;6.628;2023-06-10T04:50:51;14.53;;;13.20;;
1258;SDS011;619;51.472;6.628;2023-06-10T04:53:19;14.33;;;12.93;;
1258;SDS011;619;51.472;6.628;2023-06-10T04:55:45;15.90;;;12.60;;
1258;SDS011;619;51.472;6.628;2023-06-10T04:58:11;18.00;;;13.10;;
1258;SDS011;619;51.472;6.628;2023-06-10T05:00:37;14.07;;;12.60;;
1258;SDS011;619;51.472;6.628;2023-06-10T05:03:02;12.37;;;11.37;;
1258;SDS011;619;51.472;6.628;2023-06-10T05:05:28;15.37;;;12.10;;
1258;SDS011;619;51.472;6.628;2023-06-10T05:07:56;12.03;;;10.90;;
1258;SDS011;619;51.472;6.628;2023-06-10T05:10:22;14.93;;;12.97;;
1258;SDS011;619;51.472;6.628;2023-06-10T05:12:47;12.93;;;11.73;;
1258;SDS011;619;51.472;6.628;2023-06-10T05:15:13;14.03;;;12.73;;
1258;SDS011;619;51.472;6.628;2023-06-10T05:17:41;13.60;;;12.20;;
1258;SDS011;619;51.472;6.628;2023-06-10T05:20:09;15.47;;;13.90;;
1258;SDS011;619;51.472;6.628;2023-06-10T05:22:37;14.87;;;12.10;;
1258;SDS011;619;51.472;6.628;2023-06-10T05:25:06;15.20;;;13.63;;
1258;SDS011;619;51.472;6.628;2023-06-10T05:27:32;15.13;;;13.40;;
1258;SDS011;619;51.472;6.628;2023-06-10T05:29:57;14.10;;;12.13;;
1258;SDS011;619;51.472;6.628;2023-06-10T05:32:26;13.27;;;11.87;;
1258;SDS011;619;51.472;6.628;2023-06-10T05:34:54;14.10;;;12.13;;
1258;SDS011;619;51.472;6.628;2023-06-10T05:37:20;13.90;;;12.60;;
1258;SDS011;619;51.472;6.628;2023-06-10T05:39:45;13.27;;;11.80;;
1258;SDS011;619;51.472;6.628;2023-06-10T05:42:11;14.43;;;11.90;;
1258;SDS011;619;51.472;6.628;2023-06-10T05:44:39;15.60;;;13.47;;
1258;SDS011;619;51.472;6.628;2023-06-10T05:47:05;13.53;;;11.60;;
1258;SDS011;619;51.472;6.628;2023-06-10T05:49:31;12.17;;;11.07;;
1258;SDS011;619;51.472;6.628;2023-06-10T05:51:59;14.17;;;11.27;;
1258;SDS011;619;51.472;6.628;2023-06-10T05:54:27;12.60;;;11.27;;
1258;SDS011;619;51.472;6.628;2023-06-10T05:56:52;11.27;;;10.13;;
1258;SDS011;619;51.472;6.628;2023-06-10T05:59:20;13.87;;;9.90;;
1258;SDS011;619;51.472;6.628;2023-06-10T06:01:47;11.37;;;10.00;;
1258;SDS011;619;51.472;6.628;2023-06-10T06:04:16;14.80;;;11.10;;
1258;SDS011;619;51.472;6.628;2023-06-10T06:06:41;12.50;;;10.20;;
1258;SDS011;619;51.472;6.628;2023-06-10T06:09:10;12.50;;;10.30;;
1258;SDS011;619;51.472;6.628;2023-06-10T06:11:35;15.07;;;10.43;;
1258;SDS011;619;51.472;6.628;2023-06-10T06:14:03;14.33;;;10.30;;
1258;SDS011;619;51.472;6.628;2023-06-10T06:16:29;17.43;;;10.00;;
1258;SDS011;619;51.472;6.628;2023-06-10T06:18:55;15.53;;;10.27;;
1258;SDS011;619;51.472;6.628;2023-06-10T06:21:23;10.37;;;9.27;;
1258;SDS011;619;51.472;6.628;2023-06-10T06:23:48;10.43;;;9.33;;
1258;SDS011;619;51.472;6.628;2023-06-10T06:26:16;12.27;;;9.90;;
1258;SDS011;619;51.472;6.628;2023-06-10T06:28:44;11.53;;;10.40;;
1258;SDS011;619;51.472;6.628;2023-06-10T06:31:10;12.00;;;9.60;;
1258;SDS011;619;51.472;6.628;2023-06-10T06:33:36;10.60;;;9.47;;
1258;SDS011;619;51.472;6.628;2023-06-10T06:36:01;10.87;;;9.23;;
1258;SDS011;619;51.472;6.628;2023-06-10T06:38:29;11.20;;;9.80;;
1258;SDS011;619;51.472;6.628;2023-06-10T06:40:57;11.83;;;10.40;;
1258;SDS011;619;51.472;6.628;2023-06-10T06:43:27;13.37;;;9.60;;
1258;SDS011;619;51.472;6.628;2023-06-10T06:45:56;10.30;;;9.13;;
1258;SDS011;619;51.472;6.628;2023-06-10T06:48:22;10.33;;;9.10;;
1258;SDS011;619;51.472;6.628;2023-06-10T06:50:48;17.83;;;10.27;;
1258;SDS011;619;51.472;6.628;2023-06-10T06:53:16;11.10;;;9.80;;
1258;SDS011;619;51.472;6.628;2023-06-10T06:55:44;11.33;;;8.90;;
1258;SDS011;619;51.472;6.628;2023-06-10T06:58:10;8.87;;;8.07;;
1258;SDS011;619;51.472;6.628;2023-06-10T07:00:37;14.27;;;10.07;;
1258;SDS011;619;51.472;6.628;2023-06-10T07:03:05;12.90;;;10.63;;
1258;SDS011;619;51.472;6.628;2023-06-10T07:05:33;11.60;;;10.40;;
1258;SDS011;619;51.472;6.628;2023-06-10T07:08:01;15.40;;;11.30;;
1258;SDS011;619;51.472;6.628;2023-06-10T07:10:27;16.03;;;11.13;;
1258;SDS011;619;51.472;6.628;2023-06-10T07:12:53;13.70;;;9.80;;
1258;SDS011;619;51.472;6.628;2023-06-10T07:15:19;12.50;;;9.23;;
1258;SDS011;619;51.472;6.628;2023-06-10T07:17:47;11.23;;;9.63;;
1258;SDS011;619;51.472;6.628;2023-06-10T07:20:13;16.23;;;9.70;;
1258;SDS011;619;51.472;6.628;2023-06-10T07:22:40;10.20;;;8.50;;
1258;SDS011;619;51.472;6.628;2023-06-10T07:25:06;11.30;;;9.70;;
1258;SDS011;619;51.472;6.628;2023-06-10T07:27:34;15.13;;;9.70;;
1258;SDS011;619;51.472;6.628;2023-06-10T07:30:03;10.20;;;8.23;;
1258;SDS011;619;51.472;6.628;2023-06-10T07:32:31;13.53;;;9.40;;
1258;SDS011;619;51.472;6.628;2023-06-10T07:34:56;13.43;;;8.83;;
1258;SDS011;619;51.472;6.628;2023-06-10T07:37:22;13.63;;;9.60;;
1258;SDS011;619;51.472;6.628;2023-06-10T07:39:48;15.07;;;9.93;;
1258;SDS011;619;51.472;6.628;2023-06-10T07:42:15;17.60;;;10.10;;
1258;SDS011;619;51.472;6.628;2023-06-10T07:44:41;18.43;;;10.53;;
1258;SDS011;619;51.472;6.628;2023-06-10T07:47:09;14.33;;;10.00;;
1258;SDS011;619;51.472;6.628;2023-06-10T07:49:35;13.43;;;8.80;;
1258;SDS011;619;51.472;6.628;2023-06-10T07:52:01;12.77;;;8.30;;
1258;SDS011;619;51.472;6.628;2023-06-10T07:54:26;10.70;;;9.53;;
1258;SDS011;619;51.472;6.628;2023-06-10T07:56:52;15.20;;;8.77;;
1258;SDS011;619;51.472;6.628;2023-06-10T07:59:18;14.63;;;8.80;;
1258;SDS011;619;51.472;6.628;2023-06-10T08:01:44;11.33;;;9.33;;
1258;SDS011;619;51.472;6.628;2023-06-10T08:04:12;10.07;;;9.03;;
1258;SDS011;619;51.472;6.628;2023-06-10T08:06:37;13.20;;;8.20;;
1258;SDS011;619;51.472;6.628;2023-06-10T08:09:03;12.70;;;8.33;;
1258;SDS011;619;51.472;6.628;2023-06-10T08:11:29;12.87;;;9.67;;
1258;SDS011;619;51.472;6.628;2023-06-10T08:13:54;13.60;;;10.30;;
1258;SDS011;619;51.472;6.628;2023-06-10T08:16:20;10.33;;;8.47;;
1258;SDS011;619;51.472;6.628;2023-06-10T08:18:48;13.77;;;8.00;;
1258;SDS011;619;51.472;6.628;2023-06-10T08:21:16;10.80;;;7.40;;
1258;SDS011;619;51.472;6.628;2023-06-10T08:23:42;11.93;;;8.77;;
1258;SDS011;619;51.472;6.628;2023-06-10T08:26:09;10.77;;;7.53;;
1258;SDS011;619;51.472;6.628;2023-06-10T08:28:34;9.33;;;7.70;;
1258;SDS011;619;51.472;6.628;2023-06-10T08:31:02;10.93;;;7.23;;
1258;SDS011;619;51.472;6.628;2023-06-10T08:33:28;13.30;;;7.53;;
1258;SDS011;619;51.472;6.628;2023-06-10T08:35:56;9.20;;;7.60;;
1258;SDS011;619;51.472;6.628;2023-06-10T08:38:21;8.50;;;7.70;;
1258;SDS011;619;51.472;6.628;2023-06-10T08:40:51;7.90;;;7.10;;
1258;SDS011;619;51.472;6.628;2023-06-10T08:43:30;11.23;;;7.97;;
1258;SDS011;619;51.472;6.628;2023-06-10T08:46:01;11.00;;;9.87;;
1258;SDS011;619;51.472;6.628;2023-06-10T08:48:30;9.90;;;9.00;;
1258;SDS011;619;51.472;6.628;2023-06-10T08:50:59;8.47;;;7.77;;
1258;SDS011;619;51.472;6.628;2023-06-10T08:53:26;8.97;;;8.17;;
1258;SDS011;619;51.472;6.628;2023-06-10T08:55:56;9.43;;;8.03;;
1258;SDS011;619;51.472;6.628;2023-06-10T08:58:27;9.90;;;8.00;;
1258;SDS011;619;51.472;6.628;2023-06-10T09:00:53;10.70;;;8.47;;
1258;SDS011;619;51.472;6.628;2023-06-10T09:03:19;13.23;;;8.97;;
1258;SDS011;619;51.472;6.628;2023-06-10T09:05:46;10.33;;;9.20;;
1258;SDS011;619;51.472;6.628;2023-06-10T09:08:13;11.00;;;8.20;;
1258;SDS011;619;51.472;6.628;2023-06-10T09:10:40;7.80;;;7.00;;
1258;SDS011;619;51.472;6.628;2023-06-10T09:13:06;9.07;;;8.00;;
1258;SDS011;619;51.472;6.628;2023-06-10T09:15:32;10.60;;;8.43;;
1258;SDS011;619;51.472;6.628;2023-06-10T09:17:58;9.30;;;8.40;;
1258;SDS011;619;51.472;6.628;2023-06-10T09:20:27;9.00;;;8.20;;
1258;SDS011;619;51.472;6.628;2023-06-10T09:22:53;9.40;;;8.53;;
1258;SDS011;619;51.472;6.628;2023-06-10T09:25:21;8.83;;;7.87;;
1258;SDS011;619;51.472;6.628;2023-06-10T09:28:01;12.60;;;8.60;;
1258;SDS011;619;51.472;6.628;2023-06-10T09:30:31;9.37;;;8.20;;
1258;SDS011;619;51.472;6.628;2023-06-10T09:33:08;11.07;;;8.90;;
1258;SDS011;619;51.472;6.628;2023-06-10T09:35:46;12.87;;;9.00;;
1258;SDS011;619;51.472;6.628;2023-06-10T09:38:14;10.10;;;9.20;;
1258;SDS011;619;51.472;6.628;2023-06-10T09:40:51;10.80;;;9.80;;
1258;SDS011;619;51.472;6.628;2023-06-10T09:43:17;10.10;;;9.20;;
1258;SDS011;619;51.472;6.628;2023-06-10T09:45:43;10.97;;;8.67;;
1258;SDS011;619;51.472;6.628;2023-06-10T09:48:12;9.23;;;8.40;;
1258;SDS011;619;51.472;6.628;2023-06-10T09:50:43;9.23;;;8.53;;
1258;SDS011;619;51.472;6.628;2023-06-10T09:53:10;9.00;;;7.50;;
1258;SDS011;619;51.472;6.628;2023-06-10T09:55:40;10.90;;;8.93;;
1258;SDS011;619;51.472;6.628;2023-06-10T09:58:08;9.73;;;8.60;;
1258;SDS011;619;51.472;6.628;2023-06-10T10:00:36;10.47;;;7.97;;
1258;SDS011;619;51.472;6.628;2023-06-10T10:03:07;8.70;;;8.00;;
1258;SDS011;619;51.472;6.628;2023-06-10T10:05:32;10.13;;;8.97;;
1258;SDS011;619;51.472;6.628;2023-06-10T10:07:58;8.60;;;7.70;;
1258;SDS011;619;51.472;6.628;2023-06-10T10:10:24;9.00;;;8.20;;
1258;SDS011;619;51.472;6.628;2023-06-10T10:12:56;9.23;;;8.53;;
1258;SDS011;619;51.472;6.628;2023-06-10T10:15:28;8.90;;;8.20;;
1258;SDS011;619;51.472;6.628;2023-06-10T10:18:14;9.50;;;8.60;;
1258;SDS011;619;51.472;6.628;2023-06-10T10:20:50;9.10;;;8.17;;
1258;SDS011;619;51.472;6.628;2023-06-10T10:23:31;9.20;;;8.40;;
1258;SDS011;619;51.472;6.628;2023-06-10T10:26:04;10.13;;;9.13;;
1258;SDS011;619;51.472;6.628;2023-06-10T10:28:47;10.90;;;8.90;;
1258;SDS011;619;51.472;6.628;2023-06-10T10:31:21;9.80;;;8.80;;
1258;SDS011;619;51.472;6.628;2023-06-10T10:33:56;10.93;;;9.50;;
1258;SDS011;619;51.472;6.628;2023-06-10T10:36:24;9.80;;;9.00;;
1258;SDS011;619;51.472;6.628;2023-06-10T10:38:53;9.37;;;8.50;;
1258;SDS011;619;51.472;6.628;2023-06-10T10:41:22;9.17;;;8.30;;
1258;SDS011;619;51.472;6.628;2023-06-10T10:43:51;8.50;;;7.90;;
1258;SDS011;619;51.472;6.628;2023-06-10T10:46:19;8.90;;;8.20;;
1258;SDS011;619;51.472;6.628;2023-06-10T10:48:45;11.57;;;9.60;;
1258;SDS011;619;51.472;6.628;2023-06-10T10:51:19;10.13;;;9.20;;
1258;SDS011;619;51.472;6.628;2023-06-10T10:54:06;8.53;;;7.73;;
1258;SDS011;619;51.472;6.628;2023-06-10T10:57:09;9.23;;;8.10;;
1258;SDS011;619;51.472;6.628;2023-06-10T11:00:10;8.90;;;8.20;;
1258;SDS011;619;51.472;6.628;2023-06-10T11:05:05;9.20;;;8.50;;
1258;SDS011;619;51.472;6.628;2023-06-10T11:07:32;10.77;;;9.50;;
1258;SDS011;619;51.472;6.628;2023-06-10T11:10:00;11.17;;;9.43;;
1258;SDS011;619;51.472;6.628;2023-06-10T11:12:49;10.30;;;9.50;;
1258;SDS011;619;51.472;6.628;2023-06-10T11:15:21;10.70;;;9.30;;
1258;SDS011;619;51.472;6.628;2023-06-10T11:28:41;9.97;;;8.97;;
1258;SDS011;619;51.472;6.628;2023-06-10T11:31:18;13.60;;;10.90;;
1258;SDS011;619;51.472;6.628;2023-06-10T11:33:46;10.13;;;9.30;;
1258;SDS011;619;51.472;6.628;2023-06-10T11:36:13;9.90;;;9.00;;
1258;SDS011;619;51.472;6.628;2023-06-10T11:38:40;10.37;;;9.27;;
1258;SDS011;619;51.472;6.628;2023-06-10T11:41:13;12.60;;;9.10;;
1258;SDS011;619;51.472;6.628;2023-06-10T11:43:45;11.00;;;10.10;;
1258;SDS011;619;51.472;6.628;2023-06-10T11:46:11;9.90;;;9.20;;
1258;SDS011;619;51.472;6.628;2023-06-10T11:48:38;9.60;;;8.80;;
1258;SDS011;619;51.472;6.628;2023-06-10T11:51:08;10.27;;;9.33;;
1258;SDS011;619;51.472;6.628;2023-06-10T11:53:36;10.37;;;9.67;;
1258;SDS011;619;51.472;6.628;2023-06-10T11:56:04;12.20;;;11.00;;
1258;SDS011;619;51.472;6.628;2023-06-10T11:58:30;10.20;;;9.20;;
1258;SDS011;619;51.472;6.628;2023-06-10T12:01:00;10.20;;;9.10;;
1258;SDS011;619;51.472;6.628;2023-06-10T12:03:26;10.27;;;9.47;;
1258;SDS011;619;51.472;6.628;2023-06-10T12:06:01;9.57;;;8.77;;
1258;SDS011;619;51.472;6.628;2023-06-10T12:08:28;9.30;;;8.50;;
1258;SDS011;619;51.472;6.628;2023-06-10T12:10:56;9.93;;;9.23;;
1258;SDS011;619;51.472;6.628;2023-06-10T12:13:23;9.67;;;8.87;;
1258;SDS011;619;51.472;6.628;2023-06-10T12:15:53;10.80;;;9.90;;
1258;SDS011;619;51.472;6.628;2023-06-10T12:18:22;10.43;;;9.53;;
1258;SDS011;619;51.472;6.628;2023-06-10T12:20:49;10.97;;;9.83;;
1258;SDS011;619;51.472;6.628;2023-06-10T12:23:16;11.30;;;10.40;;
1258;SDS011;619;51.472;6.628;2023-06-10T12:25:52;10.80;;;10.00;;
1258;SDS011;619;51.472;6.628;2023-06-10T12:28:22;11.13;;;10.03;;
1258;SDS011;619;51.472;6.628;2023-06-10T12:30:49;10.07;;;9.10;;
1258;SDS011;619;51.472;6.628;2023-06-10T12:33:18;9.83;;;8.83;;
1258;SDS011;619;51.472;6.628;2023-06-10T12:35:50;10.77;;;9.87;;
1258;SDS011;619;51.472;6.628;2023-06-10T12:38:26;10.87;;;9.87;;
1258;SDS011;619;51.472;6.628;2023-06-10T12:40:59;10.00;;;9.20;;
1258;SDS011;619;51.472;6.628;2023-06-10T12:43:30;10.40;;;9.60;;
1258;SDS011;619;51.472;6.628;2023-06-10T12:46:07;12.80;;;10.33;;
1258;SDS011;619;51.472;6.628;2023-06-10T12:48:34;10.57;;;9.77;;
1258;SDS011;619;51.472;6.628;2023-06-10T12:51:00;13.20;;;10.43;;
1258;SDS011;619;51.472;6.628;2023-06-10T12:53:28;10.07;;;8.90;;
1258;SDS011;619;51.472;6.628;2023-06-10T12:55:56;10.63;;;9.83;;
1258;SDS011;619;51.472;6.628;2023-06-10T12:58:23;10.17;;;9.30;;
1258;SDS011;619;51.472;6.628;2023-06-10T13:00:53;10.73;;;9.93;;
1258;SDS011;619;51.472;6.628;2023-06-10T13:03:18;10.90;;;10.20;;
1258;SDS011;619;51.472;6.628;2023-06-10T13:05:46;10.90;;;10.00;;
1258;SDS011;619;51.472;6.628;2023-06-10T13:08:17;11.90;;;10.97;;
1258;SDS011;619;51.472;6.628;2023-06-10T13:10:43;10.27;;;9.57;;
1258;SDS011;619;51.472;6.628;2023-06-10T13:13:09;11.17;;;10.27;;
1258;SDS011;619;51.472;6.628;2023-06-10T13:15:34;11.50;;;10.40;;
1258;SDS011;619;51.472;6.628;2023-06-10T13:18:03;11.10;;;10.30;;
1258;SDS011;619;51.472;6.628;2023-06-10T13:20:32;10.90;;;9.97;;
1258;SDS011;619;51.472;6.628;2023-06-10T13:22:57;10.00;;;9.20;;
1258;SDS011;619;51.472;6.628;2023-06-10T13:25:23;10.93;;;10.03;;
1258;SDS011;619;51.472;6.628;2023-06-10T13:27:49;10.43;;;9.63;;
1258;SDS011;619;51.472;6.628;2023-06-10T13:30:17;11.03;;;10.27;;
1258;SDS011;619;51.472;6.628;2023-06-10T13:32:45;10.60;;;9.70;;
1258;SDS011;619;51.472;6.628;2023-06-10T13:35:10;11.67;;;10.43;;
1258;SDS011;619;51.472;6.628;2023-06-10T13:37:36;11.30;;;9.90;;
1258;SDS011;619;51.472;6.628;2023-06-10T13:40:04;10.83;;;10.07;;
1258;SDS011;619;51.472;6.628;2023-06-10T13:42:30;10.33;;;9.03;;
1258;SDS011;619;51.472;6.628;2023-06-10T13:44:56;11.53;;;10.40;;
1258;SDS011;619;51.472;6.628;2023-06-10T13:47:24;11.90;;;10.90;;
1258;SDS011;619;51.472;6.628;2023-06-10T13:49:54;11.00;;;10.10;;
1258;SDS011;619;51.472;6.628;2023-06-10T13:52:20;10.83;;;10.03;;
1258;SDS011;619;51.472;6.628;2023-06-10T13:54:48;11.40;;;10.43;;
1258;SDS011;619;51.472;6.628;2023-06-10T13:57:16;10.83;;;9.93;;
1258;SDS011;619;51.472;6.628;2023-06-10T13:59:42;10.90;;;9.80;;
1258;SDS011;619;51.472;6.628;2023-06-10T14:02:13;10.83;;;9.73;;
1258;SDS011;619;51.472;6.628;2023-06-10T14:04:41;10.83;;;10.07;;
1258;SDS011;619;51.472;6.628;2023-06-10T14:07:12;10.27;;;9.37;;
1258;SDS011;619;51.472;6.628;2023-06-10T14:09:38;11.20;;;10.40;;
1258;SDS011;619;51.472;6.628;2023-06-10T14:12:06;10.40;;;9.60;;
1258;SDS011;619;51.472;6.628;2023-06-10T14:14:34;10.77;;;9.40;;
1258;SDS011;619;51.472;6.628;2023-06-10T14:17:05;10.00;;;9.20;;
1258;SDS011;619;51.472;6.628;2023-06-10T14:19:30;11.30;;;10.20;;
1258;SDS011;619;51.472;6.628;2023-06-10T14:21:56;10.40;;;9.60;;
1258;SDS011;619;51.472;6.628;2023-06-10T14:24:24;10.40;;;9.80;;
1258;SDS011;619;51.472;6.628;2023-06-10T14:26:50;10.53;;;9.67;;
1258;SDS011;619;51.472;6.628;2023-06-10T14:29:18;10.90;;;10.00;;
1258;SDS011;619;51.472;6.628;2023-06-10T14:31:44;10.73;;;9.83;;
1258;SDS011;619;51.472;6.628;2023-06-10T14:34:14;11.17;;;10.37;;
1258;SDS011;619;51.472;6.628;2023-06-10T14:36:42;10.80;;;9.90;;
1258;SDS011;619;51.472;6.628;2023-06-10T14:39:10;11.00;;;10.20;;
1258;SDS011;619;51.472;6.628;2023-06-10T14:41:41;11.37;;;9.43;;
1258;SDS011;619;51.472;6.628;2023-06-10T14:44:11;9.10;;;8.50;;
1258;SDS011;619;51.472;6.628;2023-06-10T14:46:37;10.23;;;9.33;;
1258;SDS011;619;51.472;6.628;2023-06-10T14:49:05;9.90;;;9.10;;
1258;SDS011;619;51.472;6.628;2023-06-10T14:51:33;11.20;;;9.33;;
1258;SDS011;619;51.472;6.628;2023-06-10T14:53:59;10.87;;;9.93;;
1258;SDS011;619;51.472;6.628;2023-06-10T14:56:25;10.60;;;9.80;;
1258;SDS011;619;51.472;6.628;2023-06-10T14:58:52;10.40;;;9.30;;
1258;SDS011;619;51.472;6.628;2023-06-10T15:01:20;10.53;;;9.47;;
1258;SDS011;619;51.472;6.628;2023-06-10T15:03:46;10.27;;;9.37;;
1258;SDS011;619;51.472;6.628;2023-06-10T15:06:16;10.53;;;9.60;;
1258;SDS011;619;51.472;6.628;2023-06-10T15:08:46;10.50;;;9.70;;
1258;SDS011;619;51.472;6.628;2023-06-10T15:11:14;9.93;;;9.13;;
1258;SDS011;619;51.472;6.628;2023-06-10T15:13:42;14.13;;;10.63;;
1258;SDS011;619;51.472;6.628;2023-06-10T15:16:10;10.00;;;9.20;;
1258;SDS011;619;51.472;6.628;2023-06-10T15:18:35;10.53;;;9.40;;
1258;SDS011;619;51.472;6.628;2023-06-10T15:21:01;10.70;;;9.70;;
1258;SDS011;619;51.472;6.628;2023-06-10T15:23:27;10.30;;;9.40;;
1258;SDS011;619;51.472;6.628;2023-06-10T15:25:55;12.67;;;10.27;;
1258;SDS011;619;51.472;6.628;2023-06-10T15:28:25;10.73;;;9.80;;
1258;SDS011;619;51.472;6.628;2023-06-10T15:30:51;9.87;;;9.07;;
1258;SDS011;619;51.472;6.628;2023-06-10T15:33:19;9.37;;;8.67;;
1258;SDS011;619;51.472;6.628;2023-06-10T15:35:49;10.47;;;9.70;;